createdAt,value
2018-09-19T00:00:17.215Z,10
2018-09-19T00:05:19.623Z,10
2018-09-19T00:10:22.210Z,10
2018-09-19T00:15:24.534Z,10
2018-09-19T00:20:26.933Z,10
2018-09-19T00:25:29.419Z,10
2018-09-19T00:30:31.822Z,10
2018-09-19T00:35:34.265Z,10
2018-09-19T00:40:36.851Z,11
2018-09-19T00:45:39.144Z,11
2018-09-19T00:50:41.608Z,11
2018-09-19T00:55:44.043Z,12
2018-09-19T01:00:46.490Z,13
2018-09-19T01:05:48.897Z,11
2018-09-19T01:10:51.338Z,13
2018-09-19T01:15:53.845Z,11
2018-09-19T01:20:56.278Z,11
2018-09-19T01:25:58.662Z,11
2018-09-19T01:31:01.102Z,11
2018-09-19T01:36:03.560Z,11
2018-09-19T01:41:06.033Z,10
2018-09-19T01:46:08.429Z,11
2018-09-19T01:51:10.931Z,11
2018-09-19T01:56:13.289Z,11
2018-09-19T02:01:15.739Z,10
2018-09-19T02:06:18.191Z,11
2018-09-19T02:11:20.625Z,11
2018-09-19T02:16:23.098Z,9
2018-09-19T02:21:25.534Z,10
2018-09-19T02:26:27.961Z,12
2018-09-19T02:31:30.397Z,12
2018-09-19T02:36:32.832Z,11
2018-09-19T02:41:35.266Z,11
2018-09-19T02:46:37.719Z,10
2018-09-19T02:51:40.165Z,9
2018-09-19T02:56:42.627Z,11
2018-09-19T03:01:45.024Z,11
2018-09-19T03:06:47.534Z,10
2018-09-19T03:11:49.931Z,11
2018-09-19T03:16:52.508Z,10
2018-09-19T03:21:54.795Z,12
2018-09-19T03:26:57.272Z,13
2018-09-19T03:31:59.704Z,11
2018-09-19T03:37:02.114Z,15
2018-09-19T03:42:04.631Z,10
2018-09-19T03:47:06.997Z,10
2018-09-19T03:52:09.461Z,12
2018-09-19T03:57:11.948Z,11
2018-09-19T04:02:14.321Z,11
2018-09-19T04:07:16.818Z,12
2018-09-19T04:12:19.437Z,12
2018-09-19T04:17:21.654Z,14
2018-09-19T04:22:24.093Z,14
2018-09-19T04:27:26.657Z,16
2018-09-19T04:32:29.141Z,18
2018-09-19T04:37:31.476Z,14
2018-09-19T04:42:33.854Z,21
2018-09-19T04:47:36.311Z,15
2018-09-19T04:52:38.706Z,16
2018-09-19T04:57:41.202Z,14
2018-09-19T05:02:43.608Z,16
2018-09-19T05:07:46.142Z,16
2018-09-19T05:12:48.498Z,16
2018-09-19T05:17:51.144Z,15
2018-09-19T05:22:53.387Z,15
2018-09-19T05:27:55.866Z,15
2018-09-19T05:32:58.249Z,15
2018-09-19T05:38:00.678Z,18
2018-09-19T05:43:03.168Z,15
2018-09-19T05:48:05.567Z,16
2018-09-19T05:53:08.026Z,17
2018-09-19T05:58:10.530Z,15
2018-09-19T06:03:12.900Z,14
2018-09-19T06:08:15.321Z,20
2018-09-19T06:13:17.776Z,22
2018-09-19T06:18:20.260Z,24
2018-09-19T06:23:22.656Z,28
2018-09-19T06:28:25.106Z,27
2018-09-19T06:33:27.559Z,23
2018-09-19T06:38:30.043Z,18
2018-09-19T06:43:32.664Z,19
2018-09-19T06:48:34.887Z,17
2018-09-19T06:53:37.588Z,17
2018-09-19T06:58:39.987Z,14
2018-09-19T07:03:42.171Z,18
2018-09-19T07:08:44.608Z,16
2018-09-19T07:13:47.134Z,14
2018-09-19T07:18:49.577Z,20
2018-09-19T07:23:52.066Z,15
2018-09-19T07:28:54.474Z,15
2018-09-19T07:33:56.813Z,16
2018-09-19T07:38:59.255Z,18
2018-09-19T07:44:01.774Z,20
2018-09-19T07:49:04.236Z,17
2018-09-19T07:54:06.691Z,16
2018-09-19T07:59:09.059Z,17
2018-09-19T08:04:11.479Z,16
2018-09-19T08:09:14.080Z,10
2018-09-19T08:14:16.468Z,16
2018-09-19T08:19:18.785Z,19
2018-09-19T08:24:21.320Z,14
2018-09-19T08:29:23.684Z,16
2018-09-19T08:34:26.184Z,14
2018-09-19T08:39:28.687Z,19
2018-09-19T08:44:31.097Z,16
2018-09-19T08:49:33.562Z,16
2018-09-19T08:54:35.886Z,21
2018-09-19T08:59:38.530Z,24
2018-09-19T09:04:40.745Z,19
2018-09-19T09:09:43.196Z,19
2018-09-19T09:14:45.724Z,20
2018-09-19T09:19:48.404Z,22
2018-09-19T09:24:50.520Z,22
2018-09-19T09:29:52.972Z,31
2018-09-19T09:34:55.397Z,24
2018-09-19T09:39:57.842Z,26
2018-09-19T09:45:00.318Z,24
2018-09-19T09:50:02.747Z,21
2018-09-19T09:55:05.227Z,19
2018-09-19T10:00:07.714Z,16
2018-09-19T10:05:10.072Z,18
2018-09-19T10:10:12.539Z,16
2018-09-19T10:15:14.957Z,17
2018-09-19T10:20:17.397Z,18
2018-09-19T10:25:20.239Z,12
2018-09-19T10:30:22.470Z,12
2018-09-19T10:35:24.766Z,23
2018-09-19T10:40:27.162Z,9
2018-09-19T10:45:29.596Z,10
2018-09-19T10:50:32.220Z,8
2018-09-19T10:55:34.491Z,5
2018-09-19T11:00:36.957Z,11
2018-09-19T11:05:39.367Z,7
2018-09-19T11:10:41.869Z,5
2018-09-19T11:15:44.252Z,6
2018-09-19T11:20:46.670Z,5
2018-09-19T11:25:49.128Z,5
2018-09-19T11:30:51.557Z,8
2018-09-19T11:35:54.047Z,5
2018-09-19T11:40:56.711Z,4
2018-09-19T11:45:58.993Z,7
2018-09-19T11:51:01.320Z,4
2018-09-19T11:56:03.804Z,5
2018-09-19T12:01:06.264Z,4
2018-09-19T12:06:08.677Z,4
2018-09-19T12:11:11.225Z,3
2018-09-19T12:16:13.649Z,17
2018-09-19T12:21:16.034Z,8
2018-09-19T12:26:18.576Z,7
2018-09-19T12:31:21.066Z,12
2018-09-19T12:36:23.357Z,5
2018-09-19T12:41:25.750Z,9
2018-09-19T12:46:28.243Z,3
2018-09-19T12:51:30.665Z,4
2018-09-19T12:56:33.067Z,6
2018-09-19T13:01:35.536Z,5
2018-09-19T13:06:37.968Z,2
2018-09-19T13:11:40.766Z,4
2018-09-19T13:16:42.874Z,3
2018-09-19T13:21:45.329Z,44
2018-09-19T13:26:47.769Z,6
2018-09-19T13:31:50.176Z,3
2018-09-19T13:36:52.615Z,29
2018-09-19T13:41:55.083Z,37
2018-09-19T13:46:57.501Z,25
2018-09-19T13:52:00.031Z,8
2018-09-19T13:57:02.426Z,4
2018-09-19T14:02:04.846Z,3
2018-09-19T14:07:07.362Z,5
2018-09-19T14:12:09.737Z,13
2018-09-19T14:17:12.171Z,7
2018-09-19T14:22:14.603Z,20
2018-09-19T14:27:17.082Z,6
2018-09-19T14:32:19.525Z,3
2018-09-19T14:37:21.936Z,5
2018-09-19T14:42:24.398Z,7
2018-09-19T14:47:26.832Z,5
2018-09-19T14:52:29.353Z,3
2018-09-19T14:57:32.057Z,6
2018-09-19T15:02:34.199Z,3
2018-09-19T15:07:36.648Z,4
2018-09-19T15:12:39.069Z,4
2018-09-19T15:17:41.503Z,6
2018-09-19T15:22:43.926Z,6
2018-09-19T15:27:46.364Z,5
2018-09-19T15:32:48.823Z,6
2018-09-19T15:37:51.333Z,4
2018-09-19T15:42:53.767Z,4
2018-09-19T15:47:56.157Z,8
2018-09-19T15:52:58.696Z,6
2018-09-19T15:58:01.059Z,4
2018-09-19T16:03:03.495Z,5
2018-09-19T16:08:06.036Z,4
2018-09-19T16:13:08.536Z,5
2018-09-19T16:18:10.816Z,4
2018-09-19T16:23:13.501Z,3
2018-09-19T16:28:15.779Z,6
2018-09-19T16:33:18.160Z,5
2018-09-19T16:38:20.552Z,3
2018-09-19T16:43:23.877Z,4
2018-09-19T16:48:25.451Z,4
2018-09-19T16:53:27.918Z,4
2018-09-19T16:58:30.432Z,4
2018-09-19T17:03:32.901Z,3
2018-09-19T17:08:35.218Z,4
2018-09-19T17:13:38.197Z,5
2018-09-19T17:18:40.182Z,3
2018-09-19T17:23:42.639Z,6
2018-09-19T17:28:45.119Z,5
2018-09-19T17:33:47.441Z,4
2018-09-19T17:38:49.863Z,3
2018-09-19T17:43:53.451Z,4
2018-09-19T17:48:55.059Z,4
2018-09-19T17:53:57.208Z,7
2018-09-19T17:58:59.761Z,5
2018-09-19T18:04:02.179Z,5
2018-09-19T18:09:04.617Z,5
2018-09-19T18:14:06.957Z,5
2018-09-19T18:19:09.403Z,4
2018-09-19T18:24:11.895Z,4
2018-09-19T18:29:14.384Z,6
2018-09-19T18:34:16.889Z,7
2018-09-19T18:39:19.200Z,10
2018-09-19T18:44:22.454Z,4
2018-09-19T18:49:24.070Z,10
2018-09-19T18:54:26.503Z,6
2018-09-19T18:59:28.948Z,7
2018-09-19T19:04:31.399Z,7
2018-09-19T19:09:34.132Z,6
2018-09-19T19:14:36.294Z,9
2018-09-19T19:19:38.811Z,5
2018-09-19T19:24:41.165Z,5
2018-09-19T19:29:43.592Z,4
2018-09-19T19:34:46.040Z,6
2018-09-19T19:39:48.470Z,5
2018-09-19T19:44:51.036Z,5
2018-09-19T19:49:53.596Z,6
2018-09-19T19:54:55.813Z,7
2018-09-19T19:59:58.265Z,6
2018-09-19T20:05:00.747Z,6
2018-09-19T20:10:03.240Z,7
2018-09-19T20:15:05.560Z,5
2018-09-19T20:20:08.465Z,6
2018-09-19T20:25:10.486Z,5
2018-09-19T20:30:12.923Z,5
2018-09-19T20:35:15.658Z,5
2018-09-19T20:40:17.793Z,7
2018-09-19T20:45:20.288Z,6
2018-09-19T20:50:22.656Z,7
2018-09-19T20:55:25.255Z,6
2018-09-19T21:00:27.536Z,7
2018-09-19T21:05:30.874Z,5
2018-09-19T21:10:32.437Z,5
2018-09-19T21:15:34.958Z,7
2018-09-19T21:20:37.352Z,5
2018-09-19T21:25:39.748Z,5
2018-09-19T21:30:42.189Z,6
2018-09-19T21:35:44.667Z,6
2018-09-19T21:40:47.180Z,6
2018-09-19T21:45:49.507Z,6
2018-09-19T21:50:51.945Z,5
2018-09-19T21:55:54.378Z,5
2018-09-19T22:00:56.818Z,6
2018-09-19T22:05:59.363Z,5
2018-09-19T22:11:01.777Z,7
2018-09-19T22:16:04.216Z,8
2018-09-19T22:21:06.584Z,5
2018-09-19T22:26:09.023Z,6
2018-09-19T22:31:11.509Z,7
2018-09-19T22:36:14.057Z,7
2018-09-19T22:41:16.349Z,6
2018-09-19T22:46:18.805Z,6
2018-09-19T22:51:21.236Z,6
2018-09-19T22:56:23.709Z,7
2018-09-19T23:01:26.112Z,6
2018-09-19T23:06:28.576Z,7
2018-09-19T23:11:30.996Z,7
2018-09-19T23:16:33.468Z,6
2018-09-19T23:21:35.955Z,6
2018-09-19T23:26:38.321Z,7
2018-09-19T23:31:40.768Z,6
2018-09-19T23:36:43.212Z,5
2018-09-19T23:41:45.683Z,4
2018-09-19T23:46:48.100Z,4
2018-09-19T23:51:50.541Z,4
2018-09-19T23:56:53.239Z,4
